sensor_id;sensor_type;location;lat;lon;timestamp;P1;durP1;ratioP1;P2;durP2;ratioP2
52322;SDS011;38263;52.920;6.238;2023-04-24T00:02:17;2.78;;;1.23;;
52322;SDS011;38263;52.920;6.238;2023-04-24T00:04:43;1.48;;;1.38;;
52322;SDS011;38263;52.920;6.238;2023-04-24T00:07:11;1.88;;;1.40;;
52322;SDS011;38263;52.920;6.238;2023-04-24T00:09:38;1.35;;;1.20;;
52322;SDS011;38263;52.920;6.238;2023-04-24T00:12:16;1.55;;;1.27;;
52322;SDS011;38263;52.920;6.238;2023-04-24T00:14:42;2.50;;;1.35;;
52322;SDS011;38263;52.920;6.238;2023-04-24T00:17:08;1.40;;;1.30;;
52322;SDS011;38263;52.920;6.238;2023-04-24T00:19:34;1.55;;;1.30;;
52322;SDS011;38263;52.920;6.238;2023-04-24T00:22:00;3.58;;;1.40;;
52322;SDS011;38263;52.920;6.238;2023-04-24T00:24:27;1.65;;;1.15;;
52322;SDS011;38263;52.920;6.238;2023-04-24T00:26:53;2.65;;;1.58;;
52322;SDS011;38263;52.920;6.238;2023-04-24T00:29:18;3.33;;;1.30;;
52322;SDS011;38263;52.920;6.238;2023-04-24T00:31:44;1.65;;;1.48;;
52322;SDS011;38263;52.920;6.238;2023-04-24T00:34:11;2.05;;;1.85;;
52322;SDS011;38263;52.920;6.238;2023-04-24T00:36:37;1.85;;;1.73;;
52322;SDS011;38263;52.920;6.238;2023-04-24T00:39:03;1.63;;;1.52;;
52322;SDS011;38263;52.920;6.238;2023-04-24T00:41:29;1.55;;;1.42;;
52322;SDS011;38263;52.920;6.238;2023-04-24T00:43:55;1.95;;;1.50;;
52322;SDS011;38263;52.920;6.238;2023-04-24T00:46:21;1.75;;;1.60;;
52322;SDS011;38263;52.920;6.238;2023-04-24T00:48:47;1.55;;;1.45;;
52322;SDS011;38263;52.920;6.238;2023-04-24T00:51:13;1.80;;;1.40;;
52322;SDS011;38263;52.920;6.238;2023-04-24T00:53:39;1.70;;;1.60;;
52322;SDS011;38263;52.920;6.238;2023-04-24T00:56:05;2.78;;;1.98;;
52322;SDS011;38263;52.920;6.238;2023-04-24T00:58:31;1.90;;;1.52;;
52322;SDS011;38263;52.920;6.238;2023-04-24T01:00:57;4.30;;;1.92;;
52322;SDS011;38263;52.920;6.238;2023-04-24T01:03:24;3.55;;;1.85;;
52322;SDS011;38263;52.920;6.238;2023-04-24T01:05:51;1.85;;;1.73;;
52322;SDS011;38263;52.920;6.238;2023-04-24T01:08:18;2.20;;;2.03;;
52322;SDS011;38263;52.920;6.238;2023-04-24T01:10:45;2.08;;;1.98;;
52322;SDS011;38263;52.920;6.238;2023-04-24T01:13:11;2.42;;;2.13;;
52322;SDS011;38263;52.920;6.238;2023-04-24T01:15:37;2.72;;;2.47;;
52322;SDS011;38263;52.920;6.238;2023-04-24T01:18:03;3.72;;;2.50;;
52322;SDS011;38263;52.920;6.238;2023-04-24T01:20:30;2.67;;;2.47;;
52322;SDS011;38263;52.920;6.238;2023-04-24T01:22:57;3.28;;;2.97;;
52322;SDS011;38263;52.920;6.238;2023-04-24T01:25:23;3.70;;;2.90;;
52322;SDS011;38263;52.920;6.238;2023-04-24T01:27:50;3.60;;;3.30;;
52322;SDS011;38263;52.920;6.238;2023-04-24T01:30:16;3.83;;;3.42;;
52322;SDS011;38263;52.920;6.238;2023-04-24T01:32:42;3.50;;;3.20;;
52322;SDS011;38263;52.920;6.238;2023-04-24T01:35:09;4.10;;;3.70;;
52322;SDS011;38263;52.920;6.238;2023-04-24T01:37:35;4.15;;;3.75;;
52322;SDS011;38263;52.920;6.238;2023-04-24T01:40:05;6.30;;;4.13;;
52322;SDS011;38263;52.920;6.238;2023-04-24T01:42:32;4.68;;;4.28;;
52322;SDS011;38263;52.920;6.238;2023-04-24T01:44:58;4.75;;;4.22;;
52322;SDS011;38263;52.920;6.238;2023-04-24T01:47:24;5.18;;;4.68;;
52322;SDS011;38263;52.920;6.238;2023-04-24T01:49:51;6.05;;;5.15;;
52322;SDS011;38263;52.920;6.238;2023-04-24T01:52:17;5.28;;;4.78;;
52322;SDS011;38263;52.920;6.238;2023-04-24T01:54:43;5.60;;;5.10;;
52322;SDS011;38263;52.920;6.238;2023-04-24T01:57:10;6.20;;;5.60;;
52322;SDS011;38263;52.920;6.238;2023-04-24T01:59:36;6.60;;;5.85;;
52322;SDS011;38263;52.920;6.238;2023-04-24T02:02:02;7.20;;;5.50;;
52322;SDS011;38263;52.920;6.238;2023-04-24T02:04:28;7.20;;;6.50;;
52322;SDS011;38263;52.920;6.238;2023-04-24T02:06:54;8.35;;;7.25;;
52322;SDS011;38263;52.920;6.238;2023-04-24T02:09:20;8.60;;;7.10;;
52322;SDS011;38263;52.920;6.238;2023-04-24T02:11:46;9.55;;;8.18;;
52322;SDS011;38263;52.920;6.238;2023-04-24T02:14:12;11.32;;;7.90;;
52322;SDS011;38263;52.920;6.238;2023-04-24T02:16:38;8.57;;;7.55;;
52322;SDS011;38263;52.920;6.238;2023-04-24T02:19:04;10.13;;;9.10;;
52322;SDS011;38263;52.920;6.238;2023-04-24T02:21:29;12.82;;;8.40;;
52322;SDS011;38263;52.920;6.238;2023-04-24T02:23:56;11.20;;;9.13;;
52322;SDS011;38263;52.920;6.238;2023-04-24T02:26:22;10.55;;;9.45;;
52322;SDS011;38263;52.920;6.238;2023-04-24T02:28:48;11.88;;;10.68;;
52322;SDS011;38263;52.920;6.238;2023-04-24T02:31:14;10.60;;;9.43;;
52322;SDS011;38263;52.920;6.238;2023-04-24T02:33:40;11.68;;;9.73;;
52322;SDS011;38263;52.920;6.238;2023-04-24T02:36:06;11.02;;;9.88;;
52322;SDS011;38263;52.920;6.238;2023-04-24T02:38:33;12.90;;;9.40;;
52322;SDS011;38263;52.920;6.238;2023-04-24T02:40:58;10.88;;;9.77;;
52322;SDS011;38263;52.920;6.238;2023-04-24T02:43:25;10.02;;;9.02;;
52322;SDS011;38263;52.920;6.238;2023-04-24T02:45:51;9.23;;;8.32;;
52322;SDS011;38263;52.920;6.238;2023-04-24T02:48:17;9.30;;;8.38;;
52322;SDS011;38263;52.920;6.238;2023-04-24T02:50:45;9.23;;;8.32;;
52322;SDS011;38263;52.920;6.238;2023-04-24T02:53:11;9.15;;;8.25;;
52322;SDS011;38263;52.920;6.238;2023-04-24T02:55:37;13.27;;;8.93;;
52322;SDS011;38263;52.920;6.238;2023-04-24T02:58:03;8.82;;;8.02;;
52322;SDS011;38263;52.920;6.238;2023-04-24T03:00:30;9.13;;;8.27;;
52322;SDS011;38263;52.920;6.238;2023-04-24T03:02:56;8.55;;;7.72;;
52322;SDS011;38263;52.920;6.238;2023-04-24T03:05:22;8.85;;;8.05;;
52322;SDS011;38263;52.920;6.238;2023-04-24T03:07:48;8.85;;;8.05;;
52322;SDS011;38263;52.920;6.238;2023-04-24T03:10:14;10.65;;;8.27;;
52322;SDS011;38263;52.920;6.238;2023-04-24T03:12:40;8.73;;;7.93;;
52322;SDS011;38263;52.920;6.238;2023-04-24T03:15:06;8.18;;;7.38;;
52322;SDS011;38263;52.920;6.238;2023-04-24T03:17:33;8.73;;;7.82;;
52322;SDS011;38263;52.920;6.238;2023-04-24T03:19:58;8.18;;;7.38;;
52322;SDS011;38263;52.920;6.238;2023-04-24T03:22:24;7.72;;;7.00;;
52322;SDS011;38263;52.920;6.238;2023-04-24T03:24:50;8.43;;;7.53;;
52322;SDS011;38263;52.920;6.238;2023-04-24T03:27:16;7.90;;;7.18;;
52322;SDS011;38263;52.920;6.238;2023-04-24T03:29:42;8.10;;;7.30;;
52322;SDS011;38263;52.920;6.238;2023-04-24T03:32:08;7.88;;;7.07;;
52322;SDS011;38263;52.920;6.238;2023-04-24T03:34:33;7.57;;;6.85;;
52322;SDS011;38263;52.920;6.238;2023-04-24T03:36:59;8.52;;;6.63;;
52322;SDS011;38263;52.920;6.238;2023-04-24T03:39:25;7.95;;;6.95;;
52322;SDS011;38263;52.920;6.238;2023-04-24T03:41:52;8.93;;;7.20;;
52322;SDS011;38263;52.920;6.238;2023-04-24T03:44:17;7.22;;;6.30;;
52322;SDS011;38263;52.920;6.238;2023-04-24T03:46:43;10.05;;;7.38;;
52322;SDS011;38263;52.920;6.238;2023-04-24T03:49:09;7.35;;;6.35;;
52322;SDS011;38263;52.920;6.238;2023-04-24T03:51:35;7.90;;;6.38;;
52322;SDS011;38263;52.920;6.238;2023-04-24T03:54:01;7.60;;;6.78;;
52322;SDS011;38263;52.920;6.238;2023-04-24T03:56:28;7.72;;;6.90;;
52322;SDS011;38263;52.920;6.238;2023-04-24T03:58:54;9.30;;;7.00;;
52322;SDS011;38263;52.920;6.238;2023-04-24T04:01:20;9.55;;;7.38;;
52322;SDS011;38263;52.920;6.238;2023-04-24T04:03:46;7.68;;;6.45;;
52322;SDS011;38263;52.920;6.238;2023-04-24T04:06:12;9.77;;;7.03;;
52322;SDS011;38263;52.920;6.238;2023-04-24T04:08:38;8.68;;;6.60;;
52322;SDS011;38263;52.920;6.238;2023-04-24T04:11:04;8.98;;;7.50;;
52322;SDS011;38263;52.920;6.238;2023-04-24T04:13:30;8.60;;;6.63;;
52322;SDS011;38263;52.920;6.238;2023-04-24T04:15:56;8.48;;;7.15;;
52322;SDS011;38263;52.920;6.238;2023-04-24T04:18:22;10.48;;;7.13;;
52322;SDS011;38263;52.920;6.238;2023-04-24T04:20:48;8.52;;;7.13;;
52322;SDS011;38263;52.920;6.238;2023-04-24T04:23:14;9.27;;;7.03;;
52322;SDS011;38263;52.920;6.238;2023-04-24T04:25:40;8.13;;;6.88;;
52322;SDS011;38263;52.920;6.238;2023-04-24T04:28:06;8.05;;;6.80;;
52322;SDS011;38263;52.920;6.238;2023-04-24T04:30:32;9.93;;;7.55;;
52322;SDS011;38263;52.920;6.238;2023-04-24T04:32:58;11.45;;;7.90;;
52322;SDS011;38263;52.920;6.238;2023-04-24T04:35:24;7.20;;;5.93;;
52322;SDS011;38263;52.920;6.238;2023-04-24T04:37:50;7.68;;;6.10;;
52322;SDS011;38263;52.920;6.238;2023-04-24T04:40:16;7.85;;;6.90;;
52322;SDS011;38263;52.920;6.238;2023-04-24T04:42:42;6.60;;;5.78;;
52322;SDS011;38263;52.920;6.238;2023-04-24T04:45:11;7.00;;;5.63;;
52322;SDS011;38263;52.920;6.238;2023-04-24T04:47:37;8.27;;;6.13;;
52322;SDS011;38263;52.920;6.238;2023-04-24T04:50:04;4.50;;;3.75;;
52322;SDS011;38263;52.920;6.238;2023-04-24T04:52:30;3.60;;;2.95;;
52322;SDS011;38263;52.920;6.238;2023-04-24T04:54:57;3.00;;;2.65;;
52322;SDS011;38263;52.920;6.238;2023-04-24T04:57:23;3.17;;;2.60;;
52322;SDS011;38263;52.920;6.238;2023-04-24T04:59:48;2.28;;;1.90;;
52322;SDS011;38263;52.920;6.238;2023-04-24T05:02:14;2.53;;;2.30;;
52322;SDS011;38263;52.920;6.238;2023-04-24T05:04:40;3.35;;;2.30;;
52322;SDS011;38263;52.920;6.238;2023-04-24T05:07:06;3.30;;;3.00;;
52322;SDS011;38263;52.920;6.238;2023-04-24T05:09:32;3.25;;;2.55;;
52322;SDS011;38263;52.920;6.238;2023-04-24T05:11:58;4.63;;;2.47;;
52322;SDS011;38263;52.920;6.238;2023-04-24T05:14:24;4.68;;;3.22;;
52322;SDS011;38263;52.920;6.238;2023-04-24T05:16:50;5.85;;;3.40;;
52322;SDS011;38263;52.920;6.238;2023-04-24T05:19:16;4.13;;;3.72;;
52322;SDS011;38263;52.920;6.238;2023-04-24T05:21:42;5.35;;;4.72;;
52322;SDS011;38263;52.920;6.238;2023-04-24T05:24:08;6.38;;;4.20;;
52322;SDS011;38263;52.920;6.238;2023-04-24T05:26:34;7.72;;;4.70;;
52322;SDS011;38263;52.920;6.238;2023-04-24T05:29:00;6.78;;;5.07;;
52322;SDS011;38263;52.920;6.238;2023-04-24T05:31:28;7.05;;;4.95;;
52322;SDS011;38263;52.920;6.238;2023-04-24T05:33:54;8.63;;;5.47;;
52322;SDS011;38263;52.920;6.238;2023-04-24T05:36:20;8.73;;;6.22;;
52322;SDS011;38263;52.920;6.238;2023-04-24T05:38:46;8.57;;;5.80;;
52322;SDS011;38263;52.920;6.238;2023-04-24T05:41:12;9.77;;;5.57;;
52322;SDS011;38263;52.920;6.238;2023-04-24T05:43:38;7.82;;;5.70;;
52322;SDS011;38263;52.920;6.238;2023-04-24T05:46:04;7.25;;;5.38;;
52322;SDS011;38263;52.920;6.238;2023-04-24T05:48:30;7.43;;;5.50;;
52322;SDS011;38263;52.920;6.238;2023-04-24T05:50:56;6.70;;;4.88;;
52322;SDS011;38263;52.920;6.238;2023-04-24T05:53:22;6.85;;;4.78;;
52322;SDS011;38263;52.920;6.238;2023-04-24T05:55:48;7.43;;;4.78;;
52322;SDS011;38263;52.920;6.238;2023-04-24T05:58:14;8.20;;;4.53;;
52322;SDS011;38263;52.920;6.238;2023-04-24T06:00:40;6.13;;;3.85;;
52322;SDS011;38263;52.920;6.238;2023-04-24T06:03:25;5.47;;;4.60;;
52322;SDS011;38263;52.920;6.238;2023-04-24T06:05:52;6.60;;;4.33;;
52322;SDS011;38263;52.920;6.238;2023-04-24T06:08:18;8.18;;;4.35;;
52322;SDS011;38263;52.920;6.238;2023-04-24T06:10:43;8.00;;;4.97;;
52322;SDS011;38263;52.920;6.238;2023-04-24T06:13:10;7.63;;;5.75;;
52322;SDS011;38263;52.920;6.238;2023-04-24T06:15:36;7.60;;;5.40;;
52322;SDS011;38263;52.920;6.238;2023-04-24T06:18:02;8.05;;;5.10;;
52322;SDS011;38263;52.920;6.238;2023-04-24T06:20:28;8.55;;;5.07;;
52322;SDS011;38263;52.920;6.238;2023-04-24T06:22:54;6.13;;;4.28;;
52322;SDS011;38263;52.920;6.238;2023-04-24T06:25:20;8.15;;;4.20;;
52322;SDS011;38263;52.920;6.238;2023-04-24T06:27:46;5.85;;;3.85;;
52322;SDS011;38263;52.920;6.238;2023-04-24T06:30:12;7.95;;;3.88;;
52322;SDS011;38263;52.920;6.238;2023-04-24T06:32:39;5.20;;;4.03;;
52322;SDS011;38263;52.920;6.238;2023-04-24T06:35:05;6.32;;;4.20;;
52322;SDS011;38263;52.920;6.238;2023-04-24T06:37:33;12.02;;;5.40;;
52322;SDS011;38263;52.920;6.238;2023-04-24T06:39:59;7.55;;;3.38;;
52322;SDS011;38263;52.920;6.238;2023-04-24T06:42:24;6.20;;;3.85;;
52322;SDS011;38263;52.920;6.238;2023-04-24T06:44:50;5.88;;;3.50;;
52322;SDS011;38263;52.920;6.238;2023-04-24T06:47:16;8.13;;;3.55;;
52322;SDS011;38263;52.920;6.238;2023-04-24T06:49:43;8.07;;;3.53;;
52322;SDS011;38263;52.920;6.238;2023-04-24T06:52:09;4.70;;;3.03;;
52322;SDS011;38263;52.920;6.238;2023-04-24T06:54:35;4.63;;;3.22;;
52322;SDS011;38263;52.920;6.238;2023-04-24T06:57:01;6.45;;;3.50;;
52322;SDS011;38263;52.920;6.238;2023-04-24T06:59:28;4.05;;;2.72;;
52322;SDS011;38263;52.920;6.238;2023-04-24T07:01:54;6.68;;;2.53;;
52322;SDS011;38263;52.920;6.238;2023-04-24T07:04:20;4.63;;;2.47;;
52322;SDS011;38263;52.920;6.238;2023-04-24T07:06:46;6.00;;;2.40;;
52322;SDS011;38263;52.920;6.238;2023-04-24T07:09:12;9.00;;;3.47;;
52322;SDS011;38263;52.920;6.238;2023-04-24T07:11:39;5.32;;;2.67;;
52322;SDS011;38263;52.920;6.238;2023-04-24T07:14:05;4.78;;;3.53;;
52322;SDS011;38263;52.920;6.238;2023-04-24T07:16:32;8.18;;;3.15;;
52322;SDS011;38263;52.920;6.238;2023-04-24T07:18:58;7.20;;;2.80;;
52322;SDS011;38263;52.920;6.238;2023-04-24T07:21:24;5.95;;;3.28;;
52322;SDS011;38263;52.920;6.238;2023-04-24T07:23:50;5.95;;;2.88;;
52322;SDS011;38263;52.920;6.238;2023-04-24T07:26:16;5.13;;;3.13;;
52322;SDS011;38263;52.920;6.238;2023-04-24T07:28:42;6.82;;;2.30;;
52322;SDS011;38263;52.920;6.238;2023-04-24T07:31:10;5.95;;;2.83;;
52322;SDS011;38263;52.920;6.238;2023-04-24T07:33:36;3.35;;;2.55;;
52322;SDS011;38263;52.920;6.238;2023-04-24T07:36:03;6.20;;;2.50;;
52322;SDS011;38263;52.920;6.238;2023-04-24T07:38:29;6.30;;;3.15;;
52322;SDS011;38263;52.920;6.238;2023-04-24T07:40:55;5.18;;;3.20;;
52322;SDS011;38263;52.920;6.238;2023-04-24T07:43:21;8.60;;;4.75;;
52322;SDS011;38263;52.920;6.238;2023-04-24T07:45:48;9.75;;;4.85;;
52322;SDS011;38263;52.920;6.238;2023-04-24T07:48:14;10.82;;;5.95;;
52322;SDS011;38263;52.920;6.238;2023-04-24T07:50:41;14.70;;;6.38;;
52322;SDS011;38263;52.920;6.238;2023-04-24T07:53:07;8.68;;;6.45;;
52322;SDS011;38263;52.920;6.238;2023-04-24T07:55:33;15.30;;;8.77;;
52322;SDS011;38263;52.920;6.238;2023-04-24T07:57:59;20.08;;;9.82;;
52322;SDS011;38263;52.920;6.238;2023-04-24T08:00:25;21.48;;;10.35;;
52322;SDS011;38263;52.920;6.238;2023-04-24T08:02:51;19.60;;;10.85;;
52322;SDS011;38263;52.920;6.238;2023-04-24T08:05:17;15.63;;;8.50;;
52322;SDS011;38263;52.920;6.238;2023-04-24T08:07:43;13.32;;;8.50;;
52322;SDS011;38263;52.920;6.238;2023-04-24T08:12:46;20.55;;;9.32;;
52322;SDS011;38263;52.920;6.238;2023-04-24T08:15:12;15.75;;;9.23;;
52322;SDS011;38263;52.920;6.238;2023-04-24T08:17:38;17.50;;;11.10;;
52322;SDS011;38263;52.920;6.238;2023-04-24T08:20:04;20.30;;;11.45;;
52322;SDS011;38263;52.920;6.238;2023-04-24T08:22:35;21.63;;;10.60;;
52322;SDS011;38263;52.920;6.238;2023-04-24T08:25:01;23.75;;;11.63;;
52322;SDS011;38263;52.920;6.238;2023-04-24T08:27:27;18.80;;;11.68;;
52322;SDS011;38263;52.920;6.238;2023-04-24T08:29:53;24.90;;;12.60;;
52322;SDS011;38263;52.920;6.238;2023-04-24T08:32:19;22.05;;;12.55;;
52322;SDS011;38263;52.920;6.238;2023-04-24T08:34:45;26.45;;;14.15;;
52322;SDS011;38263;52.920;6.238;2023-04-24T08:37:11;18.75;;;12.10;;
52322;SDS011;38263;52.920;6.238;2023-04-24T08:39:37;25.45;;;13.95;;
52322;SDS011;38263;52.920;6.238;2023-04-24T08:42:04;23.00;;;12.35;;
52322;SDS011;38263;52.920;6.238;2023-04-24T08:44:33;22.13;;;11.75;;
52322;SDS011;38263;52.920;6.238;2023-04-24T08:47:00;21.67;;;11.05;;
52322;SDS011;38263;52.920;6.238;2023-04-24T08:49:27;17.13;;;10.57;;
52322;SDS011;38263;52.920;6.238;2023-04-24T08:51:54;15.35;;;9.10;;
52322;SDS011;38263;52.920;6.238;2023-04-24T08:54:20;13.32;;;8.93;;
52322;SDS011;38263;52.920;6.238;2023-04-24T08:56:48;15.40;;;9.23;;
52322;SDS011;38263;52.920;6.238;2023-04-24T08:59:14;14.38;;;8.73;;
52322;SDS011;38263;52.920;6.238;2023-04-24T09:01:41;17.00;;;8.95;;
52322;SDS011;38263;52.920;6.238;2023-04-24T09:04:08;10.48;;;7.50;;
52322;SDS011;38263;52.920;6.238;2023-04-24T09:06:35;13.75;;;7.50;;
52322;SDS011;38263;52.920;6.238;2023-04-24T09:09:02;13.20;;;7.40;;
52322;SDS011;38263;52.920;6.238;2023-04-24T09:11:29;13.20;;;7.07;;
52322;SDS011;38263;52.920;6.238;2023-04-24T09:13:56;15.50;;;7.40;;
52322;SDS011;38263;52.920;6.238;2023-04-24T09:16:22;12.63;;;7.00;;
52322;SDS011;38263;52.920;6.238;2023-04-24T09:18:50;13.77;;;7.15;;
52322;SDS011;38263;52.920;6.238;2023-04-24T09:21:16;13.70;;;6.70;;
52322;SDS011;38263;52.920;6.238;2023-04-24T09:23:42;13.90;;;6.13;;
52322;SDS011;38263;52.920;6.238;2023-04-24T09:26:09;9.25;;;6.10;;
52322;SDS011;38263;52.920;6.238;2023-04-24T09:28:37;14.27;;;6.63;;
52322;SDS011;38263;52.920;6.238;2023-04-24T09:33:29;12.18;;;6.70;;
52322;SDS011;38263;52.920;6.238;2023-04-24T09:35:55;10.20;;;5.60;;
52322;SDS011;38263;52.920;6.238;2023-04-24T09:38:31;13.48;;;6.38;;
52322;SDS011;38263;52.920;6.238;2023-04-24T09:40:59;12.10;;;5.63;;
52322;SDS011;38263;52.920;6.238;2023-04-24T09:43:27;10.98;;;5.18;;
52322;SDS011;38263;52.920;6.238;2023-04-24T09:45:55;9.32;;;5.28;;
52322;SDS011;38263;52.920;6.238;2023-04-24T09:48:31;12.63;;;5.88;;
52322;SDS011;38263;52.920;6.238;2023-04-24T09:50:57;6.43;;;3.85;;
52322;SDS011;38263;52.920;6.238;2023-04-24T09:53:24;9.25;;;3.47;;
52322;SDS011;38263;52.920;6.238;2023-04-24T09:55:51;7.72;;;4.25;;
52322;SDS011;38263;52.920;6.238;2023-04-24T09:58:18;10.52;;;4.10;;
52322;SDS011;38263;52.920;6.238;2023-04-24T10:00:44;12.15;;;4.13;;
52322;SDS011;38263;52.920;6.238;2023-04-24T10:03:11;6.55;;;3.85;;
52322;SDS011;38263;52.920;6.238;2023-04-24T10:05:37;12.85;;;4.47;;
52322;SDS011;38263;52.920;6.238;2023-04-24T10:08:10;10.90;;;3.90;;
52322;SDS011;38263;52.920;6.238;2023-04-24T10:10:43;11.30;;;3.95;;
52322;SDS011;38263;52.920;6.238;2023-04-24T10:13:10;12.00;;;3.67;;
52322;SDS011;38263;52.920;6.238;2023-04-24T10:15:37;8.82;;;3.63;;
52322;SDS011;38263;52.920;6.238;2023-04-24T10:18:06;12.88;;;4.00;;
52322;SDS011;38263;52.920;6.238;2023-04-24T10:20:34;8.38;;;3.65;;
52322;SDS011;38263;52.920;6.238;2023-04-24T10:23:00;11.30;;;3.35;;
52322;SDS011;38263;52.920;6.238;2023-04-24T10:25:27;9.75;;;2.95;;
52322;SDS011;38263;52.920;6.238;2023-04-24T10:27:53;11.80;;;3.38;;
52322;SDS011;38263;52.920;6.238;2023-04-24T10:30:24;15.25;;;3.28;;
52322;SDS011;38263;52.920;6.238;2023-04-24T10:32:50;10.57;;;3.17;;
52322;SDS011;38263;52.920;6.238;2023-04-24T10:35:16;12.30;;;2.85;;
52322;SDS011;38263;52.920;6.238;2023-04-24T10:37:48;10.75;;;2.72;;
52322;SDS011;38263;52.920;6.238;2023-04-24T10:40:17;12.75;;;2.58;;
52322;SDS011;38263;52.920;6.238;2023-04-24T10:42:46;15.55;;;3.60;;
52322;SDS011;38263;52.920;6.238;2023-04-24T10:45:16;7.20;;;3.05;;
52322;SDS011;38263;52.920;6.238;2023-04-24T10:47:50;12.40;;;4.65;;
52322;SDS011;38263;52.920;6.238;2023-04-24T10:50:16;9.88;;;2.75;;
52322;SDS011;38263;52.920;6.238;2023-04-24T10:52:49;8.25;;;2.22;;
52322;SDS011;38263;52.920;6.238;2023-04-24T10:55:16;15.18;;;3.17;;
52322;SDS011;38263;52.920;6.238;2023-04-24T10:58:02;11.90;;;2.97;;
52322;SDS011;38263;52.920;6.238;2023-04-24T11:00:28;7.35;;;2.53;;
52322;SDS011;38263;52.920;6.238;2023-04-24T11:02:54;9.18;;;2.60;;
52322;SDS011;38263;52.920;6.238;2023-04-24T11:05:22;10.90;;;3.20;;
52322;SDS011;38263;52.920;6.238;2023-04-24T11:13:31;7.95;;;2.53;;
52322;SDS011;38263;52.920;6.238;2023-04-24T11:19:07;4.30;;;2.20;;
52322;SDS011;38263;52.920;6.238;2023-04-24T11:26:47;4.72;;;2.00;;
52322;SDS011;38263;52.920;6.238;2023-04-24T11:29:13;11.38;;;2.13;;
52322;SDS011;38263;52.920;6.238;2023-04-24T11:31:40;4.25;;;2.13;;
52322;SDS011;38263;52.920;6.238;2023-04-24T11:34:15;6.68;;;2.38;;
52322;SDS011;38263;52.920;6.238;2023-04-24T11:36:47;7.57;;;2.40;;
52322;SDS011;38263;52.920;6.238;2023-04-24T11:39:14;7.38;;;1.92;;
52322;SDS011;38263;52.920;6.238;2023-04-24T11:41:40;9.80;;;2.35;;
52322;SDS011;38263;52.920;6.238;2023-04-24T11:44:07;9.02;;;2.40;;
52322;SDS011;38263;52.920;6.238;2023-04-24T11:46:34;7.35;;;2.22;;
52322;SDS011;38263;52.920;6.238;2023-04-24T11:48:59;9.80;;;1.92;;
52322;SDS011;38263;52.920;6.238;2023-04-24T11:51:26;6.45;;;2.00;;
52322;SDS011;38263;52.920;6.238;2023-04-24T11:53:55;3.75;;;1.75;;
52322;SDS011;38263;52.920;6.238;2023-04-24T11:56:22;3.67;;;1.63;;
52322;SDS011;38263;52.920;6.238;2023-04-24T11:58:52;2.67;;;1.58;;
52322;SDS011;38263;52.920;6.238;2023-04-24T12:01:21;3.70;;;1.77;;
52322;SDS011;38263;52.920;6.238;2023-04-24T12:03:48;2.97;;;1.38;;
52322;SDS011;38263;52.920;6.238;2023-04-24T12:06:16;3.58;;;1.50;;
52322;SDS011;38263;52.920;6.238;2023-04-24T12:08:41;4.57;;;1.40;;
52322;SDS011;38263;52.920;6.238;2023-04-24T12:11:11;4.90;;;1.15;;
52322;SDS011;38263;52.920;6.238;2023-04-24T12:13:40;2.67;;;1.40;;
52322;SDS011;38263;52.920;6.238;2023-04-24T12:16:06;2.17;;;1.02;;
52322;SDS011;38263;52.920;6.238;2023-04-24T12:18:32;5.50;;;2.03;;
52322;SDS011;38263;52.920;6.238;2023-04-24T12:23:43;3.67;;;1.13;;
52322;SDS011;38263;52.920;6.238;2023-04-24T12:26:10;2.60;;;1.27;;
52322;SDS011;38263;52.920;6.238;2023-04-24T12:28:37;4.10;;;1.15;;
52322;SDS011;38263;52.920;6.238;2023-04-24T12:31:03;5.32;;;1.20;;
52322;SDS011;38263;52.920;6.238;2023-04-24T12:33:34;8.15;;;1.50;;
52322;SDS011;38263;52.920;6.238;2023-04-24T12:36:00;4.88;;;1.27;;
52322;SDS011;38263;52.920;6.238;2023-04-24T12:38:27;7.85;;;1.52;;
52322;SDS011;38263;52.920;6.238;2023-04-24T12:41:01;3.22;;;1.08;;
52322;SDS011;38263;52.920;6.238;2023-04-24T12:43:29;3.77;;;1.37;;
52322;SDS011;38263;52.920;6.238;2023-04-24T12:45:55;6.60;;;1.48;;
52322;SDS011;38263;52.920;6.238;2023-04-24T12:48:21;6.63;;;1.52;;
52322;SDS011;38263;52.920;6.238;2023-04-24T12:50:47;3.80;;;0.93;;
52322;SDS011;38263;52.920;6.238;2023-04-24T12:53:14;6.65;;;1.85;;
52322;SDS011;38263;52.920;6.238;2023-04-24T12:55:40;2.80;;;1.20;;
52322;SDS011;38263;52.920;6.238;2023-04-24T12:58:06;4.10;;;1.52;;
52322;SDS011;38263;52.920;6.238;2023-04-24T13:00:32;2.92;;;1.13;;
52322;SDS011;38263;52.920;6.238;2023-04-24T13:02:58;3.65;;;1.30;;
52322;SDS011;38263;52.920;6.238;2023-04-24T13:05:24;3.15;;;1.05;;
52322;SDS011;38263;52.920;6.238;2023-04-24T13:07:50;2.33;;;1.20;;
52322;SDS011;38263;52.920;6.238;2023-04-24T13:10:16;5.57;;;1.35;;
52322;SDS011;38263;52.920;6.238;2023-04-24T13:12:44;4.13;;;1.25;;
52322;SDS011;38263;52.920;6.238;2023-04-24T13:18:39;5.32;;;1.30;;
52322;SDS011;38263;52.920;6.238;2023-04-24T13:21:05;7.75;;;1.23;;
52322;SDS011;38263;52.920;6.238;2023-04-24T13:23:31;6.15;;;1.88;;
52322;SDS011;38263;52.920;6.238;2023-04-24T13:25:57;4.88;;;1.58;;
52322;SDS011;38263;52.920;6.238;2023-04-24T13:28:26;4.93;;;1.30;;
52322;SDS011;38263;52.920;6.238;2023-04-24T13:30:52;4.85;;;1.80;;
52322;SDS011;38263;52.920;6.238;2023-04-24T13:33:18;3.33;;;1.42;;
52322;SDS011;38263;52.920;6.238;2023-04-24T13:35:44;3.72;;;1.42;;
52322;SDS011;38263;52.920;6.238;2023-04-24T13:38:10;7.70;;;1.08;;
52322;SDS011;38263;52.920;6.238;2023-04-24T13:40:36;6.90;;;2.75;;
52322;SDS011;38263;52.920;6.238;2023-04-24T13:43:02;2.90;;;1.55;;
52322;SDS011;38263;52.920;6.238;2023-04-24T13:45:28;7.30;;;1.65;;
52322;SDS011;38263;52.920;6.238;2023-04-24T13:47:54;9.70;;;2.28;;
52322;SDS011;38263;52.920;6.238;2023-04-24T13:50:21;6.72;;;1.95;;
52322;SDS011;38263;52.920;6.238;2023-04-24T13:52:47;8.75;;;1.92;;
52322;SDS011;38263;52.920;6.238;2023-04-24T13:55:14;6.90;;;2.35;;
52322;SDS011;38263;52.920;6.238;2023-04-24T13:57:40;4.82;;;1.83;;
52322;SDS011;38263;52.920;6.238;2023-04-24T14:00:06;8.27;;;2.40;;
52322;SDS011;38263;52.920;6.238;2023-04-24T14:02:35;10.27;;;2.22;;
52322;SDS011;38263;52.920;6.238;2023-04-24T14:05:01;9.13;;;2.30;;
52322;SDS011;38263;52.920;6.238;2023-04-24T14:07:28;7.75;;;1.95;;
52322;SDS011;38263;52.920;6.238;2023-04-24T14:09:56;9.70;;;1.88;;
52322;SDS011;38263;52.920;6.238;2023-04-24T14:12:22;8.90;;;2.40;;
52322;SDS011;38263;52.920;6.238;2023-04-24T14:14:48;12.23;;;2.40;;
52322;SDS011;38263;52.920;6.238;2023-04-24T14:17:14;11.32;;;2.38;;
52322;SDS011;38263;52.920;6.238;2023-04-24T14:19:40;9.57;;;2.55;;
52322;SDS011;38263;52.920;6.238;2023-04-24T14:22:06;10.95;;;2.67;;
52322;SDS011;38263;52.920;6.238;2023-04-24T14:24:32;10.52;;;2.22;;
52322;SDS011;38263;52.920;6.238;2023-04-24T14:26:58;8.00;;;2.00;;
52322;SDS011;38263;52.920;6.238;2023-04-24T14:29:25;14.70;;;2.53;;
52322;SDS011;38263;52.920;6.238;2023-04-24T14:31:51;8.50;;;2.13;;
52322;SDS011;38263;52.920;6.238;2023-04-24T14:34:17;9.43;;;1.80;;
52322;SDS011;38263;52.920;6.238;2023-04-24T14:36:43;6.60;;;1.70;;
52322;SDS011;38263;52.920;6.238;2023-04-24T14:39:09;7.07;;;1.85;;
52322;SDS011;38263;52.920;6.238;2023-04-24T14:41:36;11.18;;;2.65;;
52322;SDS011;38263;52.920;6.238;2023-04-24T14:44:04;10.65;;;2.65;;
52322;SDS011;38263;52.920;6.238;2023-04-24T14:46:30;9.15;;;2.22;;
52322;SDS011;38263;52.920;6.238;2023-04-24T14:48:57;9.00;;;2.35;;
52322;SDS011;38263;52.920;6.238;2023-04-24T14:51:23;16.27;;;2.70;;
52322;SDS011;38263;52.920;6.238;2023-04-24T14:53:50;11.38;;;3.00;;
52322;SDS011;38263;52.920;6.238;2023-04-24T14:56:16;9.18;;;3.35;;
52322;SDS011;38263;52.920;6.238;2023-04-24T14:58:42;10.10;;;2.70;;
52322;SDS011;38263;52.920;6.238;2023-04-24T15:01:08;16.35;;;3.05;;
52322;SDS011;38263;52.920;6.238;2023-04-24T15:03:34;13.07;;;2.53;;
52322;SDS011;38263;52.920;6.238;2023-04-24T15:06:00;11.73;;;2.92;;